Dades meteomassalio
Diari Summary for Marc 4, 2018 Units:  English    Metric   Both
« Previous Day
Next Day »
Diari Semanal Mensual Anual Personalitzat
  Maxima: Minima: Mijana:
Temperatura: TemperatureC °F 3.3 °F 9.7 °F
Rosada: DewpointC °F 1.3 °F 4.7 °F
Humitat: Humidity % 48 % 72 %
Velocitat del vent: WindSpeedKMH mph 0.0 mph 5.5 mph
Racha vent: WindSpeedGustKMH mph - -
Vent:- - West
Pressio: PressurehPa in 998.2 in -
Pluja: 0.3 in    
Historical Graphs
 
 
Tabular Data for Marc 4, 2018
Time Temperature Dew Point Pressure Wind Wind Speed Wind Gust Humidity Rainfall Rate (Hourly) solar Conditions
TemperatureC °F DewpointC °F PressurehPa in Calm     Humidity % HourlyPrecipMM in SolarRadiationWatts/m^2 W/m2 Conditions
00:03 7.2 °F 3.4 °F 1000.9 in Calm     77 % 0.0 in 0.0 W/m2 CLR
00:08 6.7 °F 3.1 °F 1001.2 in Calm     78 % 0.0 in 0.0 W/m2 CLR
00:13 6.7 °F 3.1 °F 1001.2 in Calm     78 % 0.0 in 0.0 W/m2 CLR
00:18 6.7 °F 3.1 °F 1001.2 in Calm     78 % 0.0 in 0.0 W/m2 CLR
00:23 6.7 °F 3.1 °F 1000.9 in Calm     78 % 0.0 in 0.0 W/m2 CLR
00:28 6.1 °F 2.4 °F 1000.9 in Calm     77 % 0.0 in 0.0 W/m2 CLR
00:33 6.1 °F 2.4 °F 1000.9 in Calm     77 % 0.0 in 0.0 W/m2 CLR
00:38 6.1 °F 2.4 °F 1000.9 in Calm     77 % 0.0 in 0.0 W/m2 CLR
00:43 6.1 °F 2.0 °F 1000.9 in Calm     75 % 0.0 in 0.0 W/m2 CLR
00:48 6.1 °F 1.8 °F 1000.9 in Calm     74 % 0.0 in 0.0 W/m2 CLR
00:53 6.1 °F 1.6 °F 1000.9 in Calm     73 % 0.0 in 0.0 W/m2 CLR
00:58 6.1 °F 1.6 °F 1000.9 in Calm     73 % 0.0 in 0.0 W/m2 CLR
01:03 6.1 °F 1.8 °F 1000.9 in Calm     74 % 0.0 in 0.0 W/m2 CLR
01:08 6.7 °F 2.6 °F 1000.9 in Calm     75 % 0.0 in 0.0 W/m2 CLR
01:13 6.7 °F 2.9 °F 1000.9 in Calm     77 % 0.0 in 0.0 W/m2 CLR
01:18 6.7 °F 3.1 °F 1000.9 in Calm     78 % 0.0 in 0.0 W/m2 CLR
01:23 6.7 °F 3.1 °F 1000.6 in Calm     78 % 0.0 in 0.0 W/m2 CLR
01:28 6.7 °F 2.9 °F 1000.6 in Calm     77 % 0.0 in 0.0 W/m2 CLR
01:33 6.7 °F 2.9 °F 1000.6 in Calm     77 % 0.0 in 0.0 W/m2 CLR
01:38 6.7 °F 2.7 °F 1000.6 in Calm     76 % 0.0 in 0.0 W/m2 CLR
01:43 6.7 °F 2.9 °F 1000.6 in Calm     77 % 0.0 in 0.0 W/m2 CLR
01:48 6.7 °F 3.1 °F 1000.6 in Calm     78 % 0.0 in 0.0 W/m2 CLR
01:53 6.7 °F 3.3 °F 1000.6 in Calm     79 % 0.0 in 0.0 W/m2 CLR
01:58 6.7 °F 3.3 °F 1000.6 in Calm     79 % 0.0 in 0.0 W/m2 CLR
02:03 7.2 °F 3.8 °F 1000.6 in Calm     79 % 0.0 in 0.0 W/m2 CLR
02:08 7.2 °F 4.0 °F 1000.2 in Calm     80 % 0.0 in 0.0 W/m2 CLR
02:13 7.2 °F 3.8 °F 1000.2 in Calm     79 % 0.0 in 0.0 W/m2 CLR
02:18 7.2 °F 3.7 °F 1000.2 in Calm     78 % 0.0 in 0.0 W/m2 CLR
02:23 7.2 °F 3.7 °F 1000.2 in Calm     78 % 0.0 in 0.0 W/m2 CLR
02:28 7.2 °F 3.4 °F 1000.2 in Calm     77 % 0.0 in 0.0 W/m2 CLR
02:33 7.2 °F 3.7 °F 999.9 in Calm     78 % 0.0 in 0.0 W/m2 CLR
02:38 7.2 °F 3.7 °F 999.9 in Calm     78 % 0.0 in 0.0 W/m2 CLR
02:43 7.2 °F 3.7 °F 999.9 in Calm     78 % 0.0 in 0.0 W/m2 CLR
02:48 7.2 °F 3.7 °F 999.9 in Calm     78 % 0.0 in 0.0 W/m2 CLR
02:53 7.2 °F 3.7 °F 999.9 in Calm     78 % 0.0 in 0.0 W/m2 CLR
02:58 7.2 °F 3.8 °F 999.9 in Calm     79 % 0.0 in 0.0 W/m2 CLR
03:03 7.2 °F 4.0 °F 999.9 in Calm     80 % 0.0 in 0.0 W/m2 CLR
03:08 7.2 °F 4.2 °F 999.5 in Calm     81 % 0.0 in 0.0 W/m2 CLR
03:13 7.2 °F 4.3 °F 999.5 in Calm     82 % 0.0 in 0.0 W/m2 CLR
03:18 7.2 °F 4.3 °F 999.5 in Calm     82 % 0.0 in 0.0 W/m2 CLR
03:24 7.2 °F 4.3 °F 999.5 in Calm     82 % 0.0 in 0.0 W/m2 CLR
03:29 7.2 °F 4.5 °F 999.5 in Calm     83 % 0.0 in 0.0 W/m2 CLR
03:34 7.2 °F 4.5 °F 999.5 in Calm     83 % 0.0 in 0.0 W/m2 CLR
03:39 7.2 °F 4.5 °F 999.2 in Calm     83 % 0.0 in 0.0 W/m2 CLR
03:44 7.2 °F 4.5 °F 999.2 in Calm     83 % 0.0 in 0.0 W/m2 CLR
03:49 7.2 °F 4.5 °F 999.2 in Calm     83 % 0.0 in 0.0 W/m2 CLR
03:54 7.8 °F 5.1 °F 999.2 in Calm     83 % 0.0 in 0.0 W/m2 CLR
03:59 7.8 °F 5.1 °F 999.2 in Calm     83 % 0.0 in 0.0 W/m2 CLR
04:04 7.8 °F 5.1 °F 999.2 in Calm     83 % 0.0 in 0.0 W/m2 CLR
04:09 7.8 °F 5.1 °F 999.2 in Calm     83 % 0.0 in 0.0 W/m2 CLR
04:14 7.8 °F 5.1 °F 999.2 in Calm     83 % 0.0 in 0.0 W/m2 CLR
04:19 7.8 °F 4.9 °F 999.2 in Calm     82 % 0.0 in 0.0 W/m2 CLR
04:24 7.8 °F 4.9 °F 999.2 in Calm     82 % 0.0 in 0.0 W/m2 CLR
04:29 7.8 °F 4.7 °F 999.2 in Calm     81 % 0.0 in 0.0 W/m2 CLR
04:34 7.8 °F 4.7 °F 999.2 in Calm     81 % 0.0 in 0.0 W/m2 CLR
04:39 7.8 °F 4.7 °F 998.9 in Calm     81 % 0.0 in 0.0 W/m2 CLR
04:44 7.8 °F 4.6 °F 998.9 in Calm     80 % 0.0 in 0.0 W/m2 CLR
04:49 7.8 °F 4.7 °F 998.9 in Calm     81 % 0.0 in 0.0 W/m2 CLR
04:54 7.8 °F 4.9 °F 998.9 in Calm     82 % 0.0 in 0.0 W/m2 CLR
04:59 7.8 °F 4.9 °F 998.9 in Calm     82 % 0.0 in 0.0 W/m2 CLR
05:04 7.2 °F 4.5 °F 998.9 in Calm     83 % 0.0 in 0.0 W/m2 CLR
05:09 7.2 °F 4.5 °F 998.9 in Calm     83 % 0.0 in 0.0 W/m2 CLR
05:14 7.2 °F 4.5 °F 998.5 in Calm     83 % 0.0 in 0.0 W/m2 CLR
05:19 7.2 °F 4.5 °F 998.5 in Calm     83 % 0.0 in 0.0 W/m2 CLR
05:24 7.2 °F 4.3 °F 998.5 in Calm     82 % 0.0 in 0.0 W/m2 CLR
05:29 7.2 °F 4.3 °F 998.5 in Calm     82 % 0.0 in 0.0 W/m2 CLR
05:34 7.2 °F 4.3 °F 998.5 in Calm     82 % 0.0 in 0.0 W/m2 CLR
05:39 7.2 °F 4.3 °F 998.5 in Calm     82 % 0.0 in 0.0 W/m2 CLR
05:44 7.2 °F 4.3 °F 998.5 in Calm     82 % 0.0 in 0.0 W/m2 CLR
05:49 7.2 °F 4.3 °F 998.5 in Calm     82 % 0.0 in 0.0 W/m2 CLR
05:54 7.2 °F 4.5 °F 998.5 in Calm     83 % 0.0 in 0.0 W/m2 CLR
05:59 7.2 °F 4.7 °F 998.5 in Calm     84 % 0.0 in 0.0 W/m2 CLR
06:04 7.2 °F 4.7 °F 998.9 in Calm     84 % 0.0 in 0.0 W/m2 CLR
06:09 7.2 °F 4.7 °F 998.9 in Calm     84 % 0.0 in 0.0 W/m2 CLR
06:14 7.8 °F 5.4 °F 998.9 in Calm     85 % 0.0 in 0.0 W/m2 CLR
06:19 7.8 °F 5.4 °F 998.9 in Calm     85 % 0.0 in 0.0 W/m2 CLR
06:24 7.8 °F 5.6 °F 998.5 in Calm     86 % 0.0 in 0.0 W/m2 CLR
06:29 7.8 °F 5.6 °F 998.5 in Calm     86 % 0.0 in 0.0 W/m2 CLR
06:34 7.8 °F 5.4 °F 998.5 in Calm     85 % 0.0 in 0.0 W/m2 CLR
06:39 8.3 °F 6.1 °F 998.5 in Calm     86 % 0.0 in 0.0 W/m2 CLR
06:44 8.3 °F 6.1 °F 998.5 in Calm     86 % 0.0 in 0.0 W/m2 CLR
06:49 8.3 °F 6.1 °F 998.5 in Calm     86 % 0.0 in 0.0 W/m2 CLR
06:54 8.3 °F 6.1 °F 998.2 in Calm     86 % 0.0 in 0.0 W/m2 CLR
06:59 8.3 °F 5.9 °F 998.2 in Calm     85 % 0.0 in 0.0 W/m2 CLR
07:04 8.3 °F 5.9 °F 998.5 in Calm     85 % 0.0 in 0.0 W/m2 CLR
07:09 8.3 °F 5.6 °F 998.2 in Calm     83 % 0.0 in 0.0 W/m2 CLR
07:14 8.3 °F 5.4 °F 998.2 in Calm     82 % 0.0 in 0.0 W/m2 CLR
07:19 8.3 °F 5.3 °F 998.5 in Calm     81 % 0.0 in 0.0 W/m2 OVC
07:24 8.3 °F 5.1 °F 998.5 in Calm     80 % 0.0 in 0.0 W/m2 OVC
07:29 8.3 °F 5.1 °F 998.5 in Calm     80 % 0.0 in 0.0 W/m2 OVC
07:34 8.3 °F 5.1 °F 998.5 in Calm     80 % 0.0 in 0.0 W/m2 OVC
07:39 8.3 °F 5.3 °F 998.5 in Calm     81 % 0.0 in 7.0 W/m2 OVC
07:44 8.3 °F 5.4 °F 998.5 in Calm     82 % 0.0 in 23.0 W/m2 BKN
07:49 8.3 °F 5.4 °F 998.5 in Calm     82 % 0.0 in 37.0 W/m2 BKN
07:54 8.3 °F 5.4 °F 998.5 in Calm     82 % 0.0 in 46.0 W/m2 SCT
07:59 8.3 °F 5.4 °F 998.9 in Calm     82 % 0.0 in 40.0 W/m2 BKN
08:04 8.3 °F 5.6 °F 998.9 in Calm     83 % 0.0 in 25.0 W/m2 BKN
08:09 8.3 °F 5.6 °F 998.9 in Calm     83 % 0.0 in 26.0 W/m2 BKN
08:14 8.9 °F 6.2 °F 998.9 in Calm     83 % 0.0 in 35.0 W/m2 BKN
08:19 8.9 °F 6.3 °F 998.9 in Calm     84 % 0.0 in 42.0 W/m2 BKN
08:24 8.9 °F 6.3 °F 998.9 in Calm     84 % 0.0 in 49.0 W/m2 SCT
08:29 8.9 °F 6.5 °F 998.9 in Calm     85 % 0.0 in 63.0 W/m2 SCT
08:34 8.9 °F 6.5 °F 998.9 in Calm     85 % 0.0 in 81.0 W/m2 SCT
08:39 9.4 °F 7.1 °F 998.9 in Calm     85 % 0.0 in 81.0 W/m2 FEW
08:44 9.4 °F 7.2 °F 998.9 in Calm     86 % 0.0 in 84.0 W/m2 FEW
08:49 9.4 °F 7.2 °F 998.9 in Calm     86 % 0.0 in 90.0 W/m2 FEW
08:54 9.4 °F 7.2 °F 998.9 in Calm     86 % 0.0 in 111.0 W/m2 CLR
08:59 10.0 °F 7.8 °F 999.2 in Calm     86 % 0.0 in 130.0 W/m2 CLR
09:04 10.0 °F 7.8 °F 998.9 in Calm     86 % 0.0 in 153.0 W/m2 CLR
09:09 10.0 °F 7.6 °F 998.9 in Calm     85 % 0.0 in 156.0 W/m2 CLR
09:14 10.6 °F 8.3 °F 998.9 in Calm     86 % 0.3 in 149.0 W/m2 RA
09:19 10.6 °F 8.3 °F 998.9 in Calm     86 % 0.3 in 195.0 W/m2 CLR
09:24 10.6 °F 8.3 °F 998.9 in Calm     86 % 0.3 in 197.0 W/m2 CLR
09:29 11.1 °F 8.8 °F 998.9 in Calm     86 % 0.3 in 220.0 W/m2 CLR
09:34 11.1 °F 8.7 °F 998.9 in Calm     85 % 0.3 in 281.0 W/m2 CLR
09:39 11.1 °F 8.7 °F 998.9 in Calm     85 % 0.3 in 348.0 W/m2 CLR
09:44 11.7 °F 9.1 °F 998.9 in Calm     84 % 0.3 in 153.0 W/m2 CLR
09:49 12.2 °F 9.2 °F 998.9 in Calm     82 % 0.3 in 158.0 W/m2 CLR
09:54 12.2 °F 9.1 °F 998.9 in Calm     81 % 0.3 in 195.0 W/m2 CLR
09:59 12.2 °F 9.1 °F 998.9 in Calm     81 % 0.3 in 265.0 W/m2 CLR
10:05 12.2 °F 9.1 °F 998.9 in Calm     81 % 0.3 in 204.0 W/m2 CLR
10:10 12.2 °F 8.9 °F 999.2 in Calm     80 % 0.3 in 241.0 W/m2 CLR
10:15 12.2 °F 8.9 °F 998.9 in Calm     80 % 0.0 in 251.0 W/m2 CLR
10:20 12.8 °F 9.2 °F 999.2 in Calm     79 % 0.0 in 214.0 W/m2 CLR
10:25 12.8 °F 9.2 °F 999.2 in Calm     79 % 0.0 in 343.0 W/m2 CLR
10:30 13.3 °F 9.6 °F 999.2 in Calm     78 % 0.0 in 276.0 W/m2 CLR
10:35 13.9 °F 8.5 °F 998.9 in NNW 20.4 mph 20.4 mph 70 % 0.0 in 269.0 W/m2 CLR
10:40 14.4 °F 8.2 °F 999.2 in North 29.6 mph 29.6 mph 66 % 0.0 in 176.0 W/m2 CLR
10:45 13.9 °F 8.5 °F 999.5 in NW 27.4 mph 27.4 mph 70 % 0.0 in 265.0 W/m2 CLR
10:50 13.3 °F 8.6 °F 999.5 in WNW 25.9 mph 25.9 mph 73 % 0.0 in 410.0 W/m2 CLR
10:55 13.9 °F 8.9 °F 999.5 in NW 27.8 mph 27.8 mph 72 % 0.0 in 234.0 W/m2 CLR
11:00 13.3 °F 8.0 °F 999.5 in NW 16.7 mph 16.7 mph 70 % 0.0 in 220.0 W/m2 CLR
11:05 13.3 °F 8.0 °F 999.5 in West 7.4 mph 7.4 mph 70 % 0.0 in 258.0 W/m2 CLR
11:10 13.9 °F 8.1 °F 999.5 in WNW 14.5 mph 14.5 mph 68 % 0.0 in 309.0 W/m2 CLR
11:15 13.9 °F 8.1 °F 999.5 in NW 14.8 mph 14.8 mph 68 % 0.0 in 232.0 W/m2 CLR
11:20 13.3 °F 6.7 °F 999.5 in NNW 18.5 mph 18.5 mph 64 % 0.0 in 265.0 W/m2 CLR
11:25 13.3 °F 6.7 °F 999.2 in West 14.8 mph 14.8 mph 64 % 0.0 in 322.0 W/m2 CLR
11:30 13.3 °F 6.4 °F 999.5 in WNW 16.7 mph 16.7 mph 63 % 0.0 in 425.0 W/m2 CLR
11:35 13.9 °F 6.7 °F 999.2 in SW 18.5 mph 18.5 mph 62 % 0.0 in 615.0 W/m2 CLR
11:40 13.9 °F 6.7 °F 999.2 in West 18.5 mph 18.5 mph 62 % 0.0 in 635.0 W/m2 CLR
11:45 14.4 °F 7.5 °F 999.2 in NW 18.5 mph 18.5 mph 63 % 0.0 in 661.0 W/m2 CLR
11:50 15.0 °F 7.6 °F 999.2 in WNW 20.4 mph 20.4 mph 61 % 0.0 in 496.0 W/m2 CLR
11:55 15.6 °F 7.6 °F 998.9 in West 25.9 mph 25.9 mph 59 % 0.0 in 775.0 W/m2 CLR
12:00 15.6 °F 7.6 °F 999.2 in WSW 16.7 mph 16.7 mph 59 % 0.0 in 267.0 W/m2 CLR
12:05 15.0 °F 6.3 °F 999.2 in WNW 24.1 mph 24.1 mph 56 % 0.0 in 237.0 W/m2 CLR
12:10 15.0 °F 6.3 °F 999.2 in NW 22.2 mph 22.2 mph 56 % 0.0 in 246.0 W/m2 CLR
12:15 14.4 °F 5.8 °F 999.2 in NW 29.6 mph 29.6 mph 56 % 0.0 in 316.0 W/m2 CLR
12:20 14.4 °F 6.0 °F 999.2 in NW 17.7 mph 17.7 mph 57 % 0.0 in 385.0 W/m2 CLR
12:25 14.4 °F 5.8 °F 999.2 in NW 14.8 mph 14.8 mph 56 % 0.0 in 483.0 W/m2 CLR
12:30 15.0 °F 6.3 °F 999.2 in NNW 24.1 mph 24.1 mph 56 % 0.0 in 534.0 W/m2 CLR
12:35 15.0 °F 6.3 °F 999.5 in NNW 27.8 mph 27.8 mph 56 % 0.0 in 522.0 W/m2 CLR
12:40 15.6 °F 7.1 °F 999.5 in NW 20.4 mph 20.4 mph 57 % 0.0 in 415.0 W/m2 CLR
12:45 15.0 °F 6.3 °F 999.5 in NW 18.5 mph 18.5 mph 56 % 0.0 in 325.0 W/m2 CLR
12:50 15.0 °F 6.3 °F 999.5 in North 29.6 mph 29.6 mph 56 % 0.0 in 287.0 W/m2 CLR
12:55 15.0 °F 6.3 °F 999.5 in NNW 25.9 mph 25.9 mph 56 % 0.0 in 251.0 W/m2 CLR
13:00 15.0 °F 6.0 °F 999.5 in NNW 27.8 mph 27.8 mph 55 % 0.0 in 225.0 W/m2 CLR
13:05 15.0 °F 5.8 °F 999.5 in NNW 25.9 mph 25.9 mph 54 % 0.0 in 214.0 W/m2 CLR
13:10 15.0 °F 5.8 °F 999.5 in NNW 24.1 mph 24.1 mph 54 % 0.0 in 206.0 W/m2 CLR
13:15 14.4 °F 5.2 °F 999.5 in NNW 18.5 mph 18.5 mph 54 % 0.0 in 206.0 W/m2 CLR
13:20 14.4 °F 5.0 °F 999.5 in NNW 25.9 mph 25.9 mph 53 % 0.0 in 192.0 W/m2 CLR
13:25 14.4 °F 5.0 °F 999.2 in NNW 18.5 mph 18.5 mph 53 % 0.0 in 195.0 W/m2 CLR
13:30 14.4 °F 5.2 °F 999.2 in NNW 16.7 mph 16.7 mph 54 % 0.0 in 185.0 W/m2 CLR
13:35 14.4 °F 5.2 °F 999.2 in NNW 16.7 mph 16.7 mph 54 % 0.0 in 167.0 W/m2 CLR
13:40 14.4 °F 5.8 °F 999.2 in NW 14.5 mph 14.5 mph 56 % 0.0 in 148.0 W/m2 CLR
13:45 14.4 °F 5.2 °F 999.2 in WNW 16.7 mph 16.7 mph 54 % 0.0 in 132.0 W/m2 CLR
13:50 13.9 °F 4.4 °F 998.9 in West 16.1 mph 16.1 mph 53 % 0.0 in 125.0 W/m2 CLR
13:55 13.9 °F 4.7 °F 998.9 in WNW 8.0 mph 8.0 mph 54 % 0.0 in 178.0 W/m2 CLR
14:00 14.4 °F 5.0 °F 998.9 in West 16.7 mph 16.7 mph 53 % 0.0 in 197.0 W/m2 CLR
14:05 14.4 °F 5.0 °F 998.9 in West 1.9 mph 1.9 mph 53 % 0.0 in 200.0 W/m2 CLR
14:10 14.4 °F 5.2 °F 998.9 in West 9.3 mph 9.3 mph 54 % 0.0 in 202.0 W/m2 CLR
14:15 14.4 °F 5.0 °F 998.9 in NW 13.0 mph 13.0 mph 53 % 0.0 in 207.0 W/m2 CLR
14:20 14.4 °F 5.0 °F 998.9 in WNW 11.1 mph 11.1 mph 53 % 0.0 in 220.0 W/m2 CLR
14:25 14.4 °F 4.7 °F 998.9 in WNW 1.9 mph 1.9 mph 52 % 0.0 in 204.0 W/m2 CLR
14:26 14.4 °F 4.7 °F 998.9 in WNW 1.9 mph   52 % 0.0 in 204.0 W/m2 CLR
14:31 15.0 °F 4.9 °F 998.9 in West 3.7 mph 3.7 mph 51 % 0.0 in 197.0 W/m2 CLR
14:36 15.0 °F 5.2 °F 998.9 in WNW 1.9 mph 1.9 mph 52 % 0.0 in 199.0 W/m2 CLR
14:41 15.0 °F 5.5 °F 998.9 in Calm     53 % 0.0 in 186.0 W/m2 CLR
14:46 15.0 °F 4.7 °F 998.9 in WNW 13.0 mph 13.0 mph 50 % 0.0 in 169.0 W/m2 CLR
14:51 15.0 °F 4.1 °F 998.9 in WNW 9.7 mph 9.7 mph 48 % 0.0 in 171.0 W/m2 CLR
14:56 14.4 °F 4.2 °F 998.9 in NW 9.3 mph 9.3 mph 50 % 0.0 in 155.0 W/m2 CLR
15:01 14.4 °F 4.7 °F 998.9 in Calm     52 % 0.0 in 153.0 W/m2 CLR
15:06 14.4 °F 4.2 °F 998.9 in NW 11.3 mph 11.3 mph 50 % 0.0 in 169.0 W/m2 CLR
15:11 15.0 °F 4.7 °F 998.9 in NNW 14.8 mph 14.8 mph 50 % 0.0 in 167.0 W/m2 CLR
15:16 15.0 °F 4.9 °F 999.2 in North 18.5 mph 18.5 mph 51 % 0.0 in 165.0 W/m2 CLR
15:21 14.4 °F 4.7 °F 999.2 in North 18.5 mph 18.5 mph 52 % 0.0 in 174.0 W/m2 CLR
15:26 14.4 °F 5.2 °F 999.2 in NNW 19.3 mph 19.3 mph 54 % 0.0 in 174.0 W/m2 CLR
15:31 14.4 °F 5.2 °F 999.2 in North 14.8 mph 14.8 mph 54 % 0.0 in 183.0 W/m2 CLR
15:36 14.4 °F 5.8 °F 999.2 in NNW 14.8 mph 14.8 mph 56 % 0.0 in 207.0 W/m2 CLR
15:41 14.4 °F 5.5 °F 999.2 in NW 16.7 mph 16.7 mph 55 % 0.0 in 234.0 W/m2 CLR
15:46 14.4 °F 5.0 °F 999.2 in North 18.5 mph 18.5 mph 53 % 0.0 in 253.0 W/m2 CLR
15:51 15.0 °F 5.5 °F 999.2 in NW 18.5 mph 18.5 mph 53 % 0.0 in 292.0 W/m2 CLR
15:56 15.0 °F 6.0 °F 999.2 in North 18.5 mph 18.5 mph 55 % 0.0 in 318.0 W/m2 CLR
16:01 15.0 °F 6.0 °F 999.2 in NNE 18.5 mph 18.5 mph 55 % 0.0 in 359.0 W/m2 CLR
16:06 15.0 °F 6.3 °F 999.2 in North 20.4 mph 20.4 mph 56 % 0.0 in 323.0 W/m2 CLR
16:11 15.0 °F 6.0 °F 999.5 in NNW 18.5 mph 18.5 mph 55 % 0.0 in 265.0 W/m2 CLR
16:16 15.0 °F 6.6 °F 999.5 in NNW 18.5 mph 18.5 mph 57 % 0.0 in 241.0 W/m2 CLR
16:21 15.0 °F 6.6 °F 999.5 in NW 16.7 mph 16.7 mph 57 % 0.0 in 216.0 W/m2 CLR
16:26 15.0 °F 6.3 °F 999.5 in NNW 13.0 mph 13.0 mph 56 % 0.0 in 241.0 W/m2 CLR
16:31 15.0 °F 6.8 °F 999.5 in North 14.8 mph 14.8 mph 58 % 0.0 in 327.0 W/m2 CLR
16:36 15.0 °F 6.8 °F 999.5 in North 11.1 mph 11.1 mph 58 % 0.0 in 216.0 W/m2 CLR
16:41 15.0 °F 6.3 °F 999.5 in North 18.5 mph 18.5 mph 56 % 0.0 in 153.0 W/m2 CLR
16:46 14.4 °F 5.8 °F 999.5 in North 14.8 mph 14.8 mph 56 % 0.0 in 142.0 W/m2 CLR
16:51 14.4 °F 5.8 °F 999.5 in NNW 14.5 mph 14.5 mph 56 % 0.0 in 172.0 W/m2 CLR
16:56 14.4 °F 6.0 °F 999.5 in North 16.7 mph 16.7 mph 57 % 0.0 in 202.0 W/m2 CLR
17:01 14.4 °F 6.0 °F 999.5 in NNW 16.7 mph 16.7 mph 57 % 0.0 in 188.0 W/m2 CLR
17:06 14.4 °F 6.0 °F 999.5 in North 20.9 mph 20.9 mph 57 % 0.0 in 176.0 W/m2 CLR
17:11 14.4 °F 6.3 °F 999.9 in NNW 16.7 mph 16.7 mph 58 % 0.0 in 195.0 W/m2 CLR
17:16 14.4 °F 6.5 °F 999.9 in North 18.5 mph 18.5 mph 59 % 0.0 in 153.0 W/m2 CLR
17:21 14.4 °F 6.5 °F 999.9 in NNW 18.5 mph 18.5 mph 59 % 0.0 in 308.0 W/m2 CLR
17:26 14.4 °F 6.3 °F 999.9 in North 18.5 mph 18.5 mph 58 % 0.0 in 197.0 W/m2 CLR
17:31 14.4 °F 6.3 °F 999.9 in North 14.8 mph 14.8 mph 58 % 0.0 in 162.0 W/m2 CLR
17:36 14.4 °F 6.5 °F 999.9 in North 16.1 mph 16.1 mph 59 % 0.0 in 190.0 W/m2 CLR
17:41 14.4 °F 6.3 °F 999.9 in North 13.0 mph 13.0 mph 58 % 0.0 in 144.0 W/m2 CLR
17:44 13.9 °F 6.0 °F 999.9 in NNE 14.8 mph 14.8 mph 59 % 0.0 in 176.0 W/m2 CLR
17:50 13.9 °F 5.5 °F 1000.2 in North 18.5 mph 18.5 mph 57 % 0.0 in 174.0 W/m2 CLR
17:55 13.9 °F 5.5 °F 1000.2 in NNE 13.0 mph 13.0 mph 57 % 0.0 in 146.0 W/m2 CLR
18:00 13.9 °F 5.2 °F 1000.2 in NNE 14.8 mph 14.8 mph 56 % 0.0 in 130.0 W/m2 CLR
18:05 13.9 °F 5.2 °F 1000.2 in North 14.8 mph 14.8 mph 56 % 0.0 in 118.0 W/m2 CLR
18:10 13.3 °F 5.0 °F 1000.2 in NNE 13.0 mph 13.0 mph 57 % 0.0 in 95.0 W/m2 CLR
18:15 13.3 °F 4.7 °F 1000.2 in North 14.8 mph 14.8 mph 56 % 0.0 in 84.0 W/m2 CLR
18:20 13.3 °F 4.7 °F 1000.2 in North 11.1 mph 11.1 mph 56 % 0.0 in 70.0 W/m2 FEW
18:25 13.3 °F 4.7 °F 1000.2 in Calm     56 % 0.0 in 54.0 W/m2 SCT
18:30 13.3 °F 4.7 °F 1000.2 in Calm     56 % 0.0 in 37.0 W/m2 BKN
18:35 12.8 °F 4.2 °F 999.9 in Calm     56 % 0.0 in 28.0 W/m2 BKN
18:40 12.2 °F 3.7 °F 1000.2 in Calm     56 % 0.0 in 21.0 W/m2 BKN
18:45 11.7 °F 3.7 °F 1000.2 in Calm     58 % 0.0 in 14.0 W/m2 BKN
18:50 11.1 °F 3.4 °F 1000.2 in Calm     59 % 0.0 in 7.0 W/m2 BKN
18:55 10.6 °F 3.3 °F 1000.2 in Calm     61 % 0.0 in 0.0 W/m2 OVC
19:00 10.0 °F 3.1 °F 1000.2 in Calm     62 % 0.0 in 0.0 W/m2 OVC
19:05 9.4 °F 2.9 °F 1000.2 in Calm     64 % 0.0 in 0.0 W/m2 CLR
19:10 9.4 °F 3.4 °F 1000.2 in Calm     66 % 0.0 in 0.0 W/m2 CLR
19:15 8.9 °F 3.1 °F 1000.2 in Calm     67 % 0.0 in 0.0 W/m2 CLR
19:20 8.9 °F 3.3 °F 1000.2 in Calm     68 % 0.0 in 0.0 W/m2 CLR
19:25 8.9 °F 3.5 °F 1000.6 in Calm     69 % 0.0 in 0.0 W/m2 CLR
19:30 8.9 °F 3.5 °F 1000.6 in Calm     69 % 0.0 in 0.0 W/m2 CLR
19:35 8.3 °F 3.2 °F 1000.6 in Calm     70 % 0.0 in 0.0 W/m2 CLR
19:40 8.3 °F 3.2 °F 1000.6 in Calm     70 % 0.0 in 0.0 W/m2 CLR
19:45 8.3 °F 3.4 °F 1000.9 in Calm     71 % 0.0 in 0.0 W/m2 CLR
19:50 7.8 °F 3.1 °F 1000.9 in Calm     72 % 0.0 in 0.0 W/m2 CLR
19:55 7.8 °F 3.2 °F 1000.9 in Calm     73 % 0.0 in 0.0 W/m2 CLR
20:00 7.2 °F 2.9 °F 1000.9 in Calm     74 % 0.0 in 0.0 W/m2 CLR
20:05 6.7 °F 2.6 °F 1001.2 in Calm     75 % 0.0 in 0.0 W/m2 CLR
20:10 6.7 °F 2.7 °F 1001.2 in Calm     76 % 0.0 in 0.0 W/m2 CLR
20:15 6.7 °F 2.9 °F 1001.2 in Calm     77 % 0.0 in 0.0 W/m2 CLR
20:20 6.1 °F 2.6 °F 1001.2 in Calm     78 % 0.0 in 0.0 W/m2 CLR
20:25 6.1 °F 2.7 °F 1001.2 in Calm     79 % 0.0 in 0.0 W/m2 CLR
20:30 5.6 °F 2.2 °F 1001.2 in Calm     79 % 0.0 in 0.0 W/m2 CLR
20:35 5.6 °F 2.4 °F 1001.2 in Calm     80 % 0.0 in 0.0 W/m2 CLR
20:40 5.0 °F 2.0 °F 1001.2 in Calm     81 % 0.0 in 0.0 W/m2 CLR
20:45 5.0 °F 2.0 °F 1001.2 in Calm     81 % 0.0 in 0.0 W/m2 CLR
20:50 4.4 °F 1.6 °F 1001.2 in Calm     82 % 0.0 in 0.0 W/m2 CLR
20:55 4.4 °F 1.6 °F 1001.2 in Calm     82 % 0.0 in 0.0 W/m2 CLR
21:00 4.4 °F 1.6 °F 1001.2 in Calm     82 % 0.0 in 0.0 W/m2 CLR
21:05 4.4 °F 1.6 °F 1001.2 in Calm     82 % 0.0 in 0.0 W/m2 CLR
21:10 4.4 °F 1.6 °F 1001.2 in Calm     82 % 0.0 in 0.0 W/m2 CLR
21:15 3.9 °F 1.3 °F 1001.6 in Calm     83 % 0.0 in 0.0 W/m2 CLR
21:20 3.9 °F 1.3 °F 1001.6 in Calm     83 % 0.0 in 0.0 W/m2 CLR
21:25 3.9 °F 1.4 °F 1001.6 in Calm     84 % 0.0 in 0.0 W/m2 CLR
21:30 3.9 °F 1.4 °F 1001.6 in Calm     84 % 0.0 in 0.0 W/m2 CLR
21:35 3.9 °F 1.6 °F 1001.6 in Calm     85 % 0.0 in 0.0 W/m2 CLR
21:40 3.9 °F 1.4 °F 1001.6 in Calm     84 % 0.0 in 0.0 W/m2 CLR
21:45 3.9 °F 1.6 °F 1001.2 in Calm     85 % 0.0 in 0.0 W/m2 CLR
21:50 3.9 °F 1.6 °F 1001.2 in Calm     85 % 0.0 in 0.0 W/m2 CLR
21:55 4.4 °F 2.2 °F 1001.6 in Calm     85 % 0.0 in 0.0 W/m2 CLR
22:00 4.4 °F 2.3 °F 1001.6 in Calm     86 % 0.0 in 0.0 W/m2 CLR
22:05 4.4 °F 2.3 °F 1001.6 in Calm     86 % 0.0 in 0.0 W/m2 CLR
22:10 3.9 °F 1.8 °F 1001.6 in Calm     86 % 0.0 in 0.0 W/m2 CLR
22:15 3.9 °F 1.6 °F 1001.6 in Calm     85 % 0.0 in 0.0 W/m2 CLR
22:20 4.4 °F 2.2 °F 1001.6 in Calm     85 % 0.0 in 0.0 W/m2 CLR
22:25 3.9 °F 1.6 °F 1001.6 in Calm     85 % 0.0 in 0.0 W/m2 CLR
22:30 4.4 °F 2.2 °F 1001.6 in Calm     85 % 0.0 in 0.0 W/m2 CLR
22:35 3.9 °F 1.8 °F 1001.6 in Calm     86 % 0.0 in 0.0 W/m2 CLR
22:40 3.9 °F 1.8 °F 1001.6 in Calm     86 % 0.0 in 0.0 W/m2 CLR
22:45 3.9 °F 1.6 °F 1001.6 in Calm     85 % 0.0 in 0.0 W/m2 CLR
22:51 3.9 °F 1.8 °F 1001.6 in Calm     86 % 0.0 in 0.0 W/m2 CLR
22:56 3.9 °F 1.8 °F 1001.6 in Calm     86 % 0.0 in 0.0 W/m2 CLR
23:01 3.9 °F 1.8 °F 1001.6 in Calm     86 % 0.0 in 0.0 W/m2 CLR
23:06 3.9 °F 1.8 °F 1001.6 in Calm     86 % 0.0 in 0.0 W/m2 CLR
23:11 3.9 °F 1.8 °F 1001.6 in Calm     86 % 0.0 in 0.0 W/m2 CLR
23:16 3.9 °F 1.9 °F 1001.6 in Calm     87 % 0.0 in 0.0 W/m2 CLR
23:21 3.9 °F 1.9 °F 1001.6 in Calm     87 % 0.0 in 0.0 W/m2 CLR
23:26 3.9 °F 1.9 °F 1001.6 in Calm     87 % 0.0 in 0.0 W/m2 CLR
23:31 3.9 °F 1.9 °F 1001.2 in Calm     87 % 0.0 in 0.0 W/m2 CLR
23:36 3.9 °F 1.9 °F 1001.2 in Calm     87 % 0.0 in 0.0 W/m2 CLR
23:41 3.9 °F 1.9 °F 1001.2 in Calm     87 % 0.0 in 0.0 W/m2 CLR
23:46 3.9 °F 1.9 °F 1001.2 in Calm     87 % 0.0 in 0.0 W/m2 CLR
23:51 3.3 °F 1.4 °F 1001.2 in Calm     87 % 0.0 in 0.0 W/m2 CLR
23:56 3.9 °F 1.9 °F 1001.2 in Calm     87 % 0.0 in 0.0 W/m2 CLR
Lo Temps de Massalio
Compliments of Weather Underground - 1.25 mb